sensor_id;sensor_type;location;lat;lon;timestamp;P1;durP1;ratioP1;P2;durP2;ratioP2
20287;SDS011;10303;51.960;8.372;2023-03-23T00:01:26;2.30;;;1.27;;
20287;SDS011;10303;51.960;8.372;2023-03-23T00:03:55;2.47;;;1.53;;
20287;SDS011;10303;51.960;8.372;2023-03-23T00:06:24;5.67;;;1.43;;
20287;SDS011;10303;51.960;8.372;2023-03-23T00:08:53;3.03;;;1.67;;
20287;SDS011;10303;51.960;8.372;2023-03-23T00:11:24;1.43;;;1.17;;
20287;SDS011;10303;51.960;8.372;2023-03-23T00:13:55;1.33;;;1.23;;
20287;SDS011;10303;51.960;8.372;2023-03-23T00:16:27;1.50;;;1.40;;
20287;SDS011;10303;51.960;8.372;2023-03-23T00:18:58;1.40;;;1.30;;
20287;SDS011;10303;51.960;8.372;2023-03-23T00:21:28;2.33;;;1.23;;
20287;SDS011;10303;51.960;8.372;2023-03-23T00:23:59;1.27;;;1.10;;
20287;SDS011;10303;51.960;8.372;2023-03-23T00:26:41;1.43;;;1.03;;
20287;SDS011;10303;51.960;8.372;2023-03-23T00:29:12;2.10;;;1.13;;
20287;SDS011;10303;51.960;8.372;2023-03-23T00:31:48;1.53;;;1.07;;
20287;SDS011;10303;51.960;8.372;2023-03-23T00:34:15;1.57;;;1.47;;
20287;SDS011;10303;51.960;8.372;2023-03-23T00:36:57;1.50;;;1.40;;
20287;SDS011;10303;51.960;8.372;2023-03-23T00:39:25;3.57;;;1.30;;
20287;SDS011;10303;51.960;8.372;2023-03-23T00:41:53;2.57;;;1.17;;
20287;SDS011;10303;51.960;8.372;2023-03-23T00:44:29;1.90;;;1.30;;
20287;SDS011;10303;51.960;8.372;2023-03-23T00:47:00;1.13;;;1.03;;
20287;SDS011;10303;51.960;8.372;2023-03-23T00:49:26;1.63;;;1.47;;
20287;SDS011;10303;51.960;8.372;2023-03-23T00:51:53;1.87;;;0.90;;
20287;SDS011;10303;51.960;8.372;2023-03-23T00:54:22;2.83;;;1.10;;
20287;SDS011;10303;51.960;8.372;2023-03-23T00:56:50;1.40;;;1.03;;
20287;SDS011;10303;51.960;8.372;2023-03-23T00:59:17;2.40;;;1.40;;
20287;SDS011;10303;51.960;8.372;2023-03-23T01:01:44;4.57;;;1.30;;
20287;SDS011;10303;51.960;8.372;2023-03-23T01:04:12;2.27;;;1.63;;
20287;SDS011;10303;51.960;8.372;2023-03-23T01:06:40;1.60;;;0.93;;
20287;SDS011;10303;51.960;8.372;2023-03-23T01:09:13;1.37;;;1.07;;
20287;SDS011;10303;51.960;8.372;2023-03-23T01:11:45;2.17;;;0.97;;
20287;SDS011;10303;51.960;8.372;2023-03-23T01:14:13;1.30;;;1.10;;
20287;SDS011;10303;51.960;8.372;2023-03-23T01:16:42;2.00;;;1.50;;
20287;SDS011;10303;51.960;8.372;2023-03-23T01:19:09;4.70;;;1.20;;
20287;SDS011;10303;51.960;8.372;2023-03-23T01:21:35;4.10;;;1.33;;
20287;SDS011;10303;51.960;8.372;2023-03-23T01:24:02;2.63;;;1.33;;
20287;SDS011;10303;51.960;8.372;2023-03-23T01:26:28;2.27;;;1.70;;
20287;SDS011;10303;51.960;8.372;2023-03-23T01:28:55;2.93;;;1.40;;
20287;SDS011;10303;51.960;8.372;2023-03-23T01:31:22;3.10;;;1.30;;
20287;SDS011;10303;51.960;8.372;2023-03-23T01:33:50;2.70;;;1.00;;
20287;SDS011;10303;51.960;8.372;2023-03-23T01:36:19;0.77;;;0.77;;
20287;SDS011;10303;51.960;8.372;2023-03-23T01:38:56;1.20;;;1.10;;
20287;SDS011;10303;51.960;8.372;2023-03-23T01:41:23;1.07;;;0.93;;
20287;SDS011;10303;51.960;8.372;2023-03-23T01:43:58;1.30;;;1.20;;
20287;SDS011;10303;51.960;8.372;2023-03-23T01:46:43;1.70;;;1.60;;
20287;SDS011;10303;51.960;8.372;2023-03-23T01:49:17;0.80;;;0.80;;
20287;SDS011;10303;51.960;8.372;2023-03-23T01:52:13;1.47;;;1.30;;
20287;SDS011;10303;51.960;8.372;2023-03-23T01:54:50;1.30;;;1.20;;
20287;SDS011;10303;51.960;8.372;2023-03-23T01:57:21;1.07;;;0.97;;
20287;SDS011;10303;51.960;8.372;2023-03-23T01:59:56;3.57;;;1.40;;
20287;SDS011;10303;51.960;8.372;2023-03-23T02:02:50;1.37;;;0.97;;
20287;SDS011;10303;51.960;8.372;2023-03-23T02:05:23;1.70;;;1.30;;
20287;SDS011;10303;51.960;8.372;2023-03-23T02:08:02;1.47;;;0.90;;
20287;SDS011;10303;51.960;8.372;2023-03-23T02:10:34;0.80;;;0.80;;
20287;SDS011;10303;51.960;8.372;2023-03-23T02:13:02;1.30;;;1.20;;
20287;SDS011;10303;51.960;8.372;2023-03-23T02:15:43;1.07;;;1.07;;
20287;SDS011;10303;51.960;8.372;2023-03-23T02:22:06;0.80;;;0.80;;
20287;SDS011;10303;51.960;8.372;2023-03-23T02:34:27;4.83;;;1.70;;
20287;SDS011;10303;51.960;8.372;2023-03-23T02:37:09;1.10;;;1.00;;
20287;SDS011;10303;51.960;8.372;2023-03-23T02:39:53;1.20;;;1.10;;
20287;SDS011;10303;51.960;8.372;2023-03-23T02:42:32;2.10;;;1.20;;
20287;SDS011;10303;51.960;8.372;2023-03-23T02:45:05;3.13;;;1.77;;
20287;SDS011;10303;51.960;8.372;2023-03-23T02:47:36;1.03;;;0.80;;
20287;SDS011;10303;51.960;8.372;2023-03-23T02:50:05;2.00;;;1.20;;
20287;SDS011;10303;51.960;8.372;2023-03-23T02:52:38;1.30;;;1.00;;
20287;SDS011;10303;51.960;8.372;2023-03-23T02:55:09;1.97;;;0.80;;
20287;SDS011;10303;51.960;8.372;2023-03-23T02:57:37;1.03;;;0.93;;
20287;SDS011;10303;51.960;8.372;2023-03-23T03:00:05;1.03;;;0.97;;
20287;SDS011;10303;51.960;8.372;2023-03-23T03:02:36;1.43;;;0.97;;
20287;SDS011;10303;51.960;8.372;2023-03-23T03:08:29;1.13;;;0.93;;
20287;SDS011;10303;51.960;8.372;2023-03-23T03:11:14;1.70;;;0.90;;
20287;SDS011;10303;51.960;8.372;2023-03-23T03:13:48;1.67;;;1.10;;
20287;SDS011;10303;51.960;8.372;2023-03-23T03:16:38;1.00;;;0.90;;
20287;SDS011;10303;51.960;8.372;2023-03-23T03:19:23;1.30;;;0.93;;
20287;SDS011;10303;51.960;8.372;2023-03-23T03:21:58;1.03;;;0.97;;
20287;SDS011;10303;51.960;8.372;2023-03-23T03:24:36;2.47;;;0.87;;
20287;SDS011;10303;51.960;8.372;2023-03-23T03:27:04;0.90;;;0.90;;
20287;SDS011;10303;51.960;8.372;2023-03-23T03:29:44;1.13;;;0.87;;
20287;SDS011;10303;51.960;8.372;2023-03-23T03:32:17;2.20;;;0.90;;
20287;SDS011;10303;51.960;8.372;2023-03-23T03:34:50;0.60;;;0.60;;
20287;SDS011;10303;51.960;8.372;2023-03-23T03:37:18;1.50;;;1.20;;
20287;SDS011;10303;51.960;8.372;2023-03-23T03:39:47;0.70;;;0.60;;
20287;SDS011;10303;51.960;8.372;2023-03-23T03:42:13;2.10;;;1.07;;
20287;SDS011;10303;51.960;8.372;2023-03-23T03:44:39;0.70;;;0.63;;
20287;SDS011;10303;51.960;8.372;2023-03-23T03:47:06;1.03;;;0.80;;
20287;SDS011;10303;51.960;8.372;2023-03-23T03:49:32;0.70;;;0.70;;
20287;SDS011;10303;51.960;8.372;2023-03-23T03:51:58;0.80;;;0.80;;
20287;SDS011;10303;51.960;8.372;2023-03-23T03:54:33;1.00;;;1.00;;
20287;SDS011;10303;51.960;8.372;2023-03-23T03:57:00;0.80;;;0.73;;
20287;SDS011;10303;51.960;8.372;2023-03-23T03:59:49;0.90;;;0.73;;
20287;SDS011;10303;51.960;8.372;2023-03-23T04:02:16;0.70;;;0.60;;
20287;SDS011;10303;51.960;8.372;2023-03-23T04:04:48;0.70;;;0.70;;
20287;SDS011;10303;51.960;8.372;2023-03-23T04:07:17;0.70;;;0.70;;
20287;SDS011;10303;51.960;8.372;2023-03-23T04:09:43;1.73;;;0.70;;
20287;SDS011;10303;51.960;8.372;2023-03-23T04:12:15;1.13;;;0.60;;
20287;SDS011;10303;51.960;8.372;2023-03-23T04:15:08;1.10;;;1.10;;
20287;SDS011;10303;51.960;8.372;2023-03-23T04:17:35;0.73;;;0.60;;
20287;SDS011;10303;51.960;8.372;2023-03-23T04:20:03;1.07;;;0.77;;
20287;SDS011;10303;51.960;8.372;2023-03-23T04:22:46;1.60;;;1.00;;
20287;SDS011;10303;51.960;8.372;2023-03-23T04:25:18;3.17;;;1.17;;
20287;SDS011;10303;51.960;8.372;2023-03-23T04:27:50;1.07;;;1.03;;
20287;SDS011;10303;51.960;8.372;2023-03-23T04:30:21;1.23;;;1.10;;
20287;SDS011;10303;51.960;8.372;2023-03-23T04:33:09;1.73;;;1.03;;
20287;SDS011;10303;51.960;8.372;2023-03-23T04:35:43;1.07;;;0.90;;
20287;SDS011;10303;51.960;8.372;2023-03-23T04:38:17;0.80;;;0.80;;
20287;SDS011;10303;51.960;8.372;2023-03-23T04:40:51;0.83;;;0.83;;
20287;SDS011;10303;51.960;8.372;2023-03-23T04:43:30;3.27;;;0.97;;
20287;SDS011;10303;51.960;8.372;2023-03-23T04:46:03;1.93;;;0.73;;
20287;SDS011;10303;51.960;8.372;2023-03-23T04:48:34;0.60;;;0.60;;
20287;SDS011;10303;51.960;8.372;2023-03-23T04:51:09;0.70;;;0.70;;
20287;SDS011;10303;51.960;8.372;2023-03-23T04:53:37;0.97;;;0.90;;
20287;SDS011;10303;51.960;8.372;2023-03-23T04:56:04;1.13;;;0.70;;
20287;SDS011;10303;51.960;8.372;2023-03-23T04:58:37;1.13;;;0.80;;
20287;SDS011;10303;51.960;8.372;2023-03-23T05:01:22;0.70;;;0.70;;
20287;SDS011;10303;51.960;8.372;2023-03-23T05:04:12;0.90;;;0.90;;
20287;SDS011;10303;51.960;8.372;2023-03-23T05:06:42;0.83;;;0.83;;
20287;SDS011;10303;51.960;8.372;2023-03-23T05:09:16;0.70;;;0.70;;
20287;SDS011;10303;51.960;8.372;2023-03-23T05:11:42;1.90;;;1.23;;
20287;SDS011;10303;51.960;8.372;2023-03-23T05:14:09;0.90;;;0.90;;
20287;SDS011;10303;51.960;8.372;2023-03-23T05:16:37;1.40;;;0.90;;
20287;SDS011;10303;51.960;8.372;2023-03-23T05:19:03;0.80;;;0.80;;
20287;SDS011;10303;51.960;8.372;2023-03-23T05:21:32;1.20;;;0.70;;
20287;SDS011;10303;51.960;8.372;2023-03-23T05:23:59;0.97;;;0.67;;
20287;SDS011;10303;51.960;8.372;2023-03-23T05:26:26;1.20;;;1.07;;
20287;SDS011;10303;51.960;8.372;2023-03-23T05:29:05;0.87;;;0.87;;
20287;SDS011;10303;51.960;8.372;2023-03-23T05:31:40;1.87;;;0.80;;
20287;SDS011;10303;51.960;8.372;2023-03-23T05:34:06;0.80;;;0.80;;
20287;SDS011;10303;51.960;8.372;2023-03-23T05:36:55;1.17;;;0.80;;
20287;SDS011;10303;51.960;8.372;2023-03-23T05:39:31;1.33;;;1.00;;
20287;SDS011;10303;51.960;8.372;2023-03-23T05:42:27;1.30;;;0.83;;
20287;SDS011;10303;51.960;8.372;2023-03-23T05:45:02;0.73;;;0.73;;
20287;SDS011;10303;51.960;8.372;2023-03-23T05:47:29;1.00;;;0.90;;
20287;SDS011;10303;51.960;8.372;2023-03-23T05:50:02;0.83;;;0.83;;
20287;SDS011;10303;51.960;8.372;2023-03-23T05:52:30;1.07;;;0.97;;
20287;SDS011;10303;51.960;8.372;2023-03-23T05:54:58;1.13;;;1.07;;
20287;SDS011;10303;51.960;8.372;2023-03-23T05:57:24;1.87;;;0.83;;
20287;SDS011;10303;51.960;8.372;2023-03-23T06:00:03;1.17;;;1.07;;
20287;SDS011;10303;51.960;8.372;2023-03-23T06:02:47;0.77;;;0.77;;
20287;SDS011;10303;51.960;8.372;2023-03-23T06:05:20;0.60;;;0.60;;
20287;SDS011;10303;51.960;8.372;2023-03-23T06:07:52;0.70;;;0.70;;
20287;SDS011;10303;51.960;8.372;2023-03-23T06:10:19;1.70;;;0.60;;
20287;SDS011;10303;51.960;8.372;2023-03-23T06:12:52;1.10;;;1.00;;
20287;SDS011;10303;51.960;8.372;2023-03-23T06:15:32;0.70;;;0.70;;
20287;SDS011;10303;51.960;8.372;2023-03-23T06:17:58;2.53;;;1.10;;
20287;SDS011;10303;51.960;8.372;2023-03-23T06:20:35;1.60;;;1.40;;
20287;SDS011;10303;51.960;8.372;2023-03-23T06:23:16;2.57;;;0.70;;
20287;SDS011;10303;51.960;8.372;2023-03-23T06:25:43;0.83;;;0.77;;
20287;SDS011;10303;51.960;8.372;2023-03-23T06:28:11;1.10;;;1.00;;
20287;SDS011;10303;51.960;8.372;2023-03-23T06:30:41;2.83;;;0.90;;
20287;SDS011;10303;51.960;8.372;2023-03-23T06:33:07;2.13;;;1.00;;
20287;SDS011;10303;51.960;8.372;2023-03-23T06:35:53;1.20;;;0.70;;
20287;SDS011;10303;51.960;8.372;2023-03-23T06:38:31;0.80;;;0.80;;
20287;SDS011;10303;51.960;8.372;2023-03-23T06:40:57;1.43;;;1.33;;
20287;SDS011;10303;51.960;8.372;2023-03-23T06:43:24;1.03;;;0.70;;
20287;SDS011;10303;51.960;8.372;2023-03-23T06:45:50;1.10;;;1.00;;
20287;SDS011;10303;51.960;8.372;2023-03-23T06:48:49;0.80;;;0.80;;
20287;SDS011;10303;51.960;8.372;2023-03-23T06:51:18;0.93;;;0.80;;
20287;SDS011;10303;51.960;8.372;2023-03-23T06:53:48;3.10;;;0.73;;
20287;SDS011;10303;51.960;8.372;2023-03-23T06:56:14;0.93;;;0.83;;
20287;SDS011;10303;51.960;8.372;2023-03-23T06:58:41;0.93;;;0.70;;
20287;SDS011;10303;51.960;8.372;2023-03-23T07:01:08;1.67;;;0.90;;
20287;SDS011;10303;51.960;8.372;2023-03-23T07:03:40;1.63;;;1.00;;
20287;SDS011;10303;51.960;8.372;2023-03-23T07:06:10;1.37;;;1.00;;
20287;SDS011;10303;51.960;8.372;2023-03-23T07:08:45;0.80;;;0.80;;
20287;SDS011;10303;51.960;8.372;2023-03-23T07:11:16;0.70;;;0.70;;
20287;SDS011;10303;51.960;8.372;2023-03-23T07:13:42;0.87;;;0.87;;
20287;SDS011;10303;51.960;8.372;2023-03-23T07:16:08;0.90;;;0.90;;
20287;SDS011;10303;51.960;8.372;2023-03-23T07:18:37;2.00;;;0.90;;
20287;SDS011;10303;51.960;8.372;2023-03-23T07:21:04;1.30;;;1.20;;
20287;SDS011;10303;51.960;8.372;2023-03-23T07:23:31;1.10;;;1.10;;
20287;SDS011;10303;51.960;8.372;2023-03-23T07:26:02;2.60;;;1.00;;
20287;SDS011;10303;51.960;8.372;2023-03-23T07:28:37;1.20;;;1.10;;
20287;SDS011;10303;51.960;8.372;2023-03-23T07:31:16;1.27;;;1.03;;
20287;SDS011;10303;51.960;8.372;2023-03-23T07:33:42;1.60;;;1.00;;
20287;SDS011;10303;51.960;8.372;2023-03-23T07:36:09;1.30;;;1.20;;
20287;SDS011;10303;51.960;8.372;2023-03-23T07:38:36;1.50;;;0.93;;
20287;SDS011;10303;51.960;8.372;2023-03-23T07:41:04;2.20;;;0.97;;
20287;SDS011;10303;51.960;8.372;2023-03-23T07:43:31;2.27;;;1.00;;
20287;SDS011;10303;51.960;8.372;2023-03-23T07:46:09;1.00;;;1.00;;
20287;SDS011;10303;51.960;8.372;2023-03-23T07:48:54;1.67;;;1.43;;
20287;SDS011;10303;51.960;8.372;2023-03-23T07:51:25;0.80;;;0.80;;
20287;SDS011;10303;51.960;8.372;2023-03-23T07:53:51;1.43;;;1.20;;
20287;SDS011;10303;51.960;8.372;2023-03-23T07:56:35;2.37;;;1.00;;
20287;SDS011;10303;51.960;8.372;2023-03-23T07:59:10;2.87;;;1.30;;
20287;SDS011;10303;51.960;8.372;2023-03-23T08:01:39;2.10;;;0.80;;
20287;SDS011;10303;51.960;8.372;2023-03-23T08:04:23;1.13;;;1.03;;
20287;SDS011;10303;51.960;8.372;2023-03-23T08:07:08;0.90;;;0.90;;
20287;SDS011;10303;51.960;8.372;2023-03-23T08:09:49;1.93;;;1.23;;
20287;SDS011;10303;51.960;8.372;2023-03-23T08:12:26;2.07;;;1.50;;
20287;SDS011;10303;51.960;8.372;2023-03-23T08:15:12;1.30;;;1.20;;
20287;SDS011;10303;51.960;8.372;2023-03-23T08:18:02;0.93;;;0.93;;
20287;SDS011;10303;51.960;8.372;2023-03-23T08:20:56;1.67;;;1.10;;
20287;SDS011;10303;51.960;8.372;2023-03-23T08:23:36;1.13;;;0.93;;
20287;SDS011;10303;51.960;8.372;2023-03-23T08:26:21;1.40;;;1.23;;
20287;SDS011;10303;51.960;8.372;2023-03-23T08:29:13;0.83;;;0.70;;
20287;SDS011;10303;51.960;8.372;2023-03-23T08:32:02;1.57;;;1.00;;
20287;SDS011;10303;51.960;8.372;2023-03-23T08:34:28;1.40;;;1.30;;
20287;SDS011;10303;51.960;8.372;2023-03-23T08:37:09;1.90;;;1.30;;
20287;SDS011;10303;51.960;8.372;2023-03-23T08:40:13;4.97;;;1.60;;
20287;SDS011;10303;51.960;8.372;2023-03-23T08:42:52;0.80;;;0.80;;
20287;SDS011;10303;51.960;8.372;2023-03-23T08:45:44;3.57;;;1.23;;
20287;SDS011;10303;51.960;8.372;2023-03-23T08:48:09;2.73;;;1.10;;
20287;SDS011;10303;51.960;8.372;2023-03-23T08:51:02;1.37;;;1.20;;
20287;SDS011;10303;51.960;8.372;2023-03-23T08:53:47;2.03;;;1.27;;
20287;SDS011;10303;51.960;8.372;2023-03-23T08:56:43;1.73;;;1.20;;
20287;SDS011;10303;51.960;8.372;2023-03-23T08:59:28;9.63;;;1.60;;
20287;SDS011;10303;51.960;8.372;2023-03-23T09:02:14;2.27;;;1.40;;
20287;SDS011;10303;51.960;8.372;2023-03-23T09:04:48;2.93;;;0.80;;
20287;SDS011;10303;51.960;8.372;2023-03-23T09:07:41;3.10;;;1.43;;
20287;SDS011;10303;51.960;8.372;2023-03-23T09:10:11;4.67;;;1.10;;
20287;SDS011;10303;51.960;8.372;2023-03-23T09:12:39;2.00;;;1.30;;
20287;SDS011;10303;51.960;8.372;2023-03-23T09:15:07;3.60;;;1.10;;
20287;SDS011;10303;51.960;8.372;2023-03-23T09:17:36;2.77;;;1.10;;
20287;SDS011;10303;51.960;8.372;2023-03-23T09:20:09;1.63;;;1.30;;
20287;SDS011;10303;51.960;8.372;2023-03-23T09:22:39;1.10;;;1.00;;
20287;SDS011;10303;51.960;8.372;2023-03-23T09:25:08;1.40;;;1.10;;
20287;SDS011;10303;51.960;8.372;2023-03-23T09:27:36;3.93;;;1.20;;
20287;SDS011;10303;51.960;8.372;2023-03-23T09:30:08;2.90;;;1.40;;
20287;SDS011;10303;51.960;8.372;2023-03-23T09:32:37;3.70;;;1.53;;
20287;SDS011;10303;51.960;8.372;2023-03-23T09:35:05;3.90;;;1.63;;
20287;SDS011;10303;51.960;8.372;2023-03-23T09:37:34;2.60;;;1.57;;
20287;SDS011;10303;51.960;8.372;2023-03-23T09:40:04;2.83;;;1.30;;
20287;SDS011;10303;51.960;8.372;2023-03-23T09:56:57;2.50;;;1.13;;
20287;SDS011;10303;51.960;8.372;2023-03-23T10:02:12;2.23;;;1.40;;
20287;SDS011;10303;51.960;8.372;2023-03-23T10:04:45;6.07;;;1.60;;
20287;SDS011;10303;51.960;8.372;2023-03-23T10:07:23;1.50;;;1.40;;
20287;SDS011;10303;51.960;8.372;2023-03-23T10:09:53;3.37;;;1.60;;
20287;SDS011;10303;51.960;8.372;2023-03-23T10:12:30;1.27;;;1.17;;
20287;SDS011;10303;51.960;8.372;2023-03-23T10:15:31;2.50;;;1.60;;
20287;SDS011;10303;51.960;8.372;2023-03-23T10:18:09;2.43;;;1.60;;
20287;SDS011;10303;51.960;8.372;2023-03-23T10:23:32;1.80;;;1.63;;
20287;SDS011;10303;51.960;8.372;2023-03-23T10:29:36;3.20;;;1.20;;
20287;SDS011;10303;51.960;8.372;2023-03-23T10:32:17;3.80;;;1.73;;
20287;SDS011;10303;51.960;8.372;2023-03-23T10:35:02;1.67;;;1.40;;
20287;SDS011;10303;51.960;8.372;2023-03-23T10:37:36;1.97;;;1.47;;
20287;SDS011;10303;51.960;8.372;2023-03-23T10:40:13;4.50;;;1.60;;
20287;SDS011;10303;51.960;8.372;2023-03-23T10:42:50;5.67;;;1.80;;
20287;SDS011;10303;51.960;8.372;2023-03-23T10:45:21;6.77;;;1.80;;
20287;SDS011;10303;51.960;8.372;2023-03-23T10:48:08;3.67;;;2.00;;
20287;SDS011;10303;51.960;8.372;2023-03-23T10:50:41;4.90;;;1.23;;
20287;SDS011;10303;51.960;8.372;2023-03-23T10:53:15;0.30;;;0.27;;
20287;SDS011;10303;51.960;8.372;2023-03-23T10:55:55;0.40;;;0.33;;
20287;SDS011;10303;51.960;8.372;2023-03-23T10:58:22;1.47;;;0.30;;
20287;SDS011;10303;51.960;8.372;2023-03-23T11:01:01;2.13;;;0.37;;
20287;SDS011;10303;51.960;8.372;2023-03-23T11:06:23;0.40;;;0.30;;
20287;SDS011;10303;51.960;8.372;2023-03-23T11:09:01;0.43;;;0.30;;
20287;SDS011;10303;51.960;8.372;2023-03-23T11:11:37;0.93;;;0.30;;
20287;SDS011;10303;51.960;8.372;2023-03-23T11:14:15;0.73;;;0.30;;
20287;SDS011;10303;51.960;8.372;2023-03-23T11:19:24;0.10;;;0.10;;
20287;SDS011;10303;51.960;8.372;2023-03-23T11:22:07;0.13;;;0.13;;
20287;SDS011;10303;51.960;8.372;2023-03-23T11:24:43;0.30;;;0.30;;
20287;SDS011;10303;51.960;8.372;2023-03-23T11:27:13;0.67;;;0.30;;
20287;SDS011;10303;51.960;8.372;2023-03-23T11:29:48;0.50;;;0.30;;
20287;SDS011;10303;51.960;8.372;2023-03-23T11:32:34;4.17;;;0.23;;
20287;SDS011;10303;51.960;8.372;2023-03-23T11:35:02;0.20;;;0.20;;
20287;SDS011;10303;51.960;8.372;2023-03-23T11:37:35;0.80;;;0.50;;
20287;SDS011;10303;51.960;8.372;2023-03-23T11:51:47;0.67;;;0.50;;
20287;SDS011;10303;51.960;8.372;2023-03-23T11:56:58;1.63;;;0.40;;
20287;SDS011;10303;51.960;8.372;2023-03-23T11:59:29;1.40;;;0.30;;
20287;SDS011;10303;51.960;8.372;2023-03-23T12:05:00;1.30;;;0.47;;
20287;SDS011;10303;51.960;8.372;2023-03-23T12:20:19;1.03;;;0.70;;
20287;SDS011;10303;51.960;8.372;2023-03-23T12:34:40;0.33;;;0.33;;
20287;SDS011;10303;51.960;8.372;2023-03-23T12:43:36;0.67;;;0.60;;
20287;SDS011;10303;51.960;8.372;2023-03-23T12:49:26;0.30;;;0.30;;
20287;SDS011;10303;51.960;8.372;2023-03-23T12:57:43;0.40;;;0.40;;
20287;SDS011;10303;51.960;8.372;2023-03-23T13:00:59;2.07;;;0.40;;
20287;SDS011;10303;51.960;8.372;2023-03-23T13:03:55;0.40;;;0.30;;
20287;SDS011;10303;51.960;8.372;2023-03-23T13:06:44;0.53;;;0.33;;
20287;SDS011;10303;51.960;8.372;2023-03-23T13:11:47;0.30;;;0.30;;
20287;SDS011;10303;51.960;8.372;2023-03-23T13:28:30;0.67;;;0.50;;
20287;SDS011;10303;51.960;8.372;2023-03-23T13:31:17;0.50;;;0.50;;
20287;SDS011;10303;51.960;8.372;2023-03-23T13:33:58;0.40;;;0.40;;
20287;SDS011;10303;51.960;8.372;2023-03-23T13:39:31;0.73;;;0.70;;
20287;SDS011;10303;51.960;8.372;2023-03-23T13:42:17;2.10;;;0.90;;
20287;SDS011;10303;51.960;8.372;2023-03-23T13:45:18;0.60;;;0.60;;
20287;SDS011;10303;51.960;8.372;2023-03-23T13:47:44;0.50;;;0.50;;
20287;SDS011;10303;51.960;8.372;2023-03-23T13:50:23;0.63;;;0.63;;
20287;SDS011;10303;51.960;8.372;2023-03-23T13:52:53;0.87;;;0.60;;
20287;SDS011;10303;51.960;8.372;2023-03-23T13:57:54;2.73;;;1.20;;
20287;SDS011;10303;51.960;8.372;2023-03-23T14:03:10;1.07;;;0.90;;
20287;SDS011;10303;51.960;8.372;2023-03-23T14:05:48;1.20;;;1.00;;
20287;SDS011;10303;51.960;8.372;2023-03-23T14:10:59;0.70;;;0.50;;
20287;SDS011;10303;51.960;8.372;2023-03-23T14:19:15;1.23;;;0.70;;
20287;SDS011;10303;51.960;8.372;2023-03-23T14:21:52;0.87;;;0.80;;
20287;SDS011;10303;51.960;8.372;2023-03-23T14:24:24;1.30;;;1.20;;
20287;SDS011;10303;51.960;8.372;2023-03-23T14:26:53;1.23;;;0.93;;
20287;SDS011;10303;51.960;8.372;2023-03-23T14:29:38;1.13;;;0.70;;
20287;SDS011;10303;51.960;8.372;2023-03-23T14:32:05;1.40;;;1.13;;
20287;SDS011;10303;51.960;8.372;2023-03-23T14:34:38;0.90;;;0.90;;
20287;SDS011;10303;51.960;8.372;2023-03-23T14:37:04;1.40;;;0.90;;
20287;SDS011;10303;51.960;8.372;2023-03-23T14:39:37;1.30;;;0.90;;
20287;SDS011;10303;51.960;8.372;2023-03-23T14:42:09;2.10;;;1.80;;
20287;SDS011;10303;51.960;8.372;2023-03-23T14:44:40;1.20;;;0.93;;
20287;SDS011;10303;51.960;8.372;2023-03-23T14:47:19;2.20;;;1.07;;
20287;SDS011;10303;51.960;8.372;2023-03-23T14:49:46;1.33;;;1.23;;
20287;SDS011;10303;51.960;8.372;2023-03-23T14:52:16;1.57;;;1.47;;
20287;SDS011;10303;51.960;8.372;2023-03-23T14:54:46;2.80;;;1.27;;
20287;SDS011;10303;51.960;8.372;2023-03-23T14:57:16;2.27;;;1.30;;
20287;SDS011;10303;51.960;8.372;2023-03-23T14:59:51;3.23;;;1.47;;
20287;SDS011;10303;51.960;8.372;2023-03-23T15:05:00;3.23;;;1.43;;
20287;SDS011;10303;51.960;8.372;2023-03-23T15:07:35;1.17;;;0.90;;
20287;SDS011;10303;51.960;8.372;2023-03-23T15:10:07;1.20;;;1.13;;
20287;SDS011;10303;51.960;8.372;2023-03-23T15:12:38;1.20;;;1.10;;
20287;SDS011;10303;51.960;8.372;2023-03-23T15:15:05;2.20;;;1.03;;
20287;SDS011;10303;51.960;8.372;2023-03-23T15:17:46;1.67;;;1.27;;
20287;SDS011;10303;51.960;8.372;2023-03-23T15:20:22;1.43;;;1.33;;
20287;SDS011;10303;51.960;8.372;2023-03-23T15:22:53;1.47;;;1.37;;
20287;SDS011;10303;51.960;8.372;2023-03-23T15:27:54;2.53;;;1.40;;
20287;SDS011;10303;51.960;8.372;2023-03-23T15:32:52;2.33;;;1.00;;
20287;SDS011;10303;51.960;8.372;2023-03-23T15:35:47;0.90;;;0.90;;
20287;SDS011;10303;51.960;8.372;2023-03-23T15:38:18;1.27;;;1.00;;
20287;SDS011;10303;51.960;8.372;2023-03-23T15:40:50;3.17;;;1.40;;
20287;SDS011;10303;51.960;8.372;2023-03-23T15:45:53;1.83;;;1.20;;
20287;SDS011;10303;51.960;8.372;2023-03-23T15:48:30;2.00;;;1.30;;
20287;SDS011;10303;51.960;8.372;2023-03-23T15:51:15;1.23;;;0.97;;
20287;SDS011;10303;51.960;8.372;2023-03-23T15:53:43;1.40;;;1.30;;
20287;SDS011;10303;51.960;8.372;2023-03-23T15:56:11;2.60;;;1.00;;
20287;SDS011;10303;51.960;8.372;2023-03-23T15:58:38;2.13;;;1.00;;
20287;SDS011;10303;51.960;8.372;2023-03-23T16:01:06;4.27;;;1.13;;
20287;SDS011;10303;51.960;8.372;2023-03-23T16:03:48;2.03;;;1.23;;
20287;SDS011;10303;51.960;8.372;2023-03-23T16:06:23;3.33;;;1.83;;
20287;SDS011;10303;51.960;8.372;2023-03-23T16:08:53;3.73;;;1.90;;
20287;SDS011;10303;51.960;8.372;2023-03-23T16:11:20;1.70;;;1.60;;
20287;SDS011;10303;51.960;8.372;2023-03-23T16:13:49;2.37;;;1.20;;
20287;SDS011;10303;51.960;8.372;2023-03-23T16:16:17;1.40;;;1.30;;
20287;SDS011;10303;51.960;8.372;2023-03-23T16:18:48;1.30;;;1.20;;
20287;SDS011;10303;51.960;8.372;2023-03-23T16:21:14;3.13;;;1.87;;
20287;SDS011;10303;51.960;8.372;2023-03-23T16:23:41;4.50;;;2.43;;
20287;SDS011;10303;51.960;8.372;2023-03-23T16:26:08;3.60;;;1.70;;
20287;SDS011;10303;51.960;8.372;2023-03-23T16:28:35;1.23;;;1.07;;
20287;SDS011;10303;51.960;8.372;2023-03-23T16:31:01;2.13;;;1.97;;
20287;SDS011;10303;51.960;8.372;2023-03-23T16:33:28;3.10;;;1.67;;
20287;SDS011;10303;51.960;8.372;2023-03-23T16:35:54;2.13;;;1.90;;
20287;SDS011;10303;51.960;8.372;2023-03-23T16:38:21;1.63;;;1.20;;
20287;SDS011;10303;51.960;8.372;2023-03-23T16:40:47;1.87;;;1.17;;
20287;SDS011;10303;51.960;8.372;2023-03-23T16:43:13;4.47;;;1.40;;
20287;SDS011;10303;51.960;8.372;2023-03-23T16:45:40;1.87;;;1.70;;
20287;SDS011;10303;51.960;8.372;2023-03-23T16:48:09;1.87;;;1.77;;
20287;SDS011;10303;51.960;8.372;2023-03-23T16:50:37;2.67;;;1.20;;
20287;SDS011;10303;51.960;8.372;2023-03-23T16:53:05;1.40;;;1.30;;
20287;SDS011;10303;51.960;8.372;2023-03-23T16:55:32;2.23;;;2.00;;
20287;SDS011;10303;51.960;8.372;2023-03-23T16:58:00;2.00;;;1.53;;
20287;SDS011;10303;51.960;8.372;2023-03-23T17:00:28;1.47;;;1.37;;
20287;SDS011;10303;51.960;8.372;2023-03-23T17:02:55;2.13;;;2.00;;
20287;SDS011;10303;51.960;8.372;2023-03-23T17:05:22;1.90;;;1.50;;
20287;SDS011;10303;51.960;8.372;2023-03-23T17:07:51;2.43;;;1.57;;
20287;SDS011;10303;51.960;8.372;2023-03-23T17:10:21;1.60;;;1.50;;
20287;SDS011;10303;51.960;8.372;2023-03-23T17:12:51;2.37;;;1.40;;
20287;SDS011;10303;51.960;8.372;2023-03-23T17:15:18;1.40;;;1.30;;
20287;SDS011;10303;51.960;8.372;2023-03-23T17:17:44;1.57;;;1.00;;
20287;SDS011;10303;51.960;8.372;2023-03-23T17:20:11;2.40;;;1.13;;
20287;SDS011;10303;51.960;8.372;2023-03-23T17:22:38;2.20;;;1.20;;
20287;SDS011;10303;51.960;8.372;2023-03-23T17:25:05;2.83;;;1.50;;
20287;SDS011;10303;51.960;8.372;2023-03-23T17:27:33;1.57;;;1.43;;
20287;SDS011;10303;51.960;8.372;2023-03-23T17:30:00;2.10;;;1.77;;
20287;SDS011;10303;51.960;8.372;2023-03-23T17:32:28;1.70;;;1.60;;
20287;SDS011;10303;51.960;8.372;2023-03-23T17:34:54;1.70;;;1.60;;
20287;SDS011;10303;51.960;8.372;2023-03-23T17:37:20;2.40;;;1.37;;
20287;SDS011;10303;51.960;8.372;2023-03-23T17:39:46;1.20;;;1.10;;
20287;SDS011;10303;51.960;8.372;2023-03-23T17:42:13;1.27;;;1.17;;
20287;SDS011;10303;51.960;8.372;2023-03-23T17:44:39;1.33;;;1.10;;
20287;SDS011;10303;51.960;8.372;2023-03-23T17:47:06;1.83;;;1.40;;
20287;SDS011;10303;51.960;8.372;2023-03-23T17:49:31;2.53;;;1.20;;
20287;SDS011;10303;51.960;8.372;2023-03-23T17:51:58;2.83;;;1.23;;